Terminal Aerodrome Forecast
Issued by NWS

Home | Current Version | Previous Version | Graphics & Text | Print | Product List | Glossary On
Versions: 1 2 3 4 5 6 7 8 9 10 11 12 13 14 15 16
649
FTUS43 KFGF 162320
TAFBJI
TAF
KBJI 162320Z 1700/1724 26007KT P6SM OVC015
      TEMPO 1700/1702 -RA BKN009
     FM170700 25008KT P6SM BKN020
     FM171700 27011KT P6SM BKN035=

USA.gov is the U.S. government's official web portal to all federal, state and local government web resources and services.